createdAt,value
2022-07-26T00:01:17.849Z,98706.71
2022-07-26T00:06:50.512Z,98697.34
2022-07-26T00:09:18.857Z,98700.12
2022-07-26T00:11:47.062Z,98698.63
2022-07-26T00:14:15.236Z,98694.72
2022-07-26T00:16:44.070Z,98693.09
2022-07-26T00:19:12.509Z,98694.27
2022-07-26T00:21:41.004Z,98695.89
2022-07-26T00:24:10.060Z,98696.96
2022-07-26T00:26:38.255Z,98693.98
2022-07-26T00:29:06.999Z,98696.48
2022-07-26T00:31:35.593Z,98701.63
2022-07-26T00:34:03.906Z,98702.08
2022-07-26T00:36:32.079Z,98699.80
2022-07-26T00:39:00.252Z,98697.42
2022-07-26T00:41:28.425Z,98694.30
2022-07-26T00:43:59.570Z,98693.52
2022-07-26T00:46:28.491Z,98691.02
2022-07-26T00:48:56.937Z,98684.04
2022-07-26T00:51:25.321Z,98674.61
2022-07-26T00:53:53.599Z,98672.66
2022-07-26T00:56:22.473Z,98669.00
2022-07-26T00:58:50.762Z,98662.55
2022-07-26T01:01:19.090Z,98658.54
2022-07-26T01:03:52.122Z,98658.77
2022-07-26T01:06:26.713Z,98656.61
2022-07-26T01:08:55.977Z,98653.91
2022-07-26T01:11:24.183Z,98649.15
2022-07-26T01:13:52.395Z,98648.45
2022-07-26T01:16:20.598Z,98655.55
2022-07-26T01:18:48.845Z,98658.40
2022-07-26T01:21:17.533Z,98659.11
2022-07-26T01:23:45.810Z,98660.25
2022-07-26T01:26:14.050Z,98656.96
2022-07-26T01:28:42.945Z,98655.27
2022-07-26T01:31:11.179Z,98650.64
2022-07-26T01:33:39.426Z,98652.67
2022-07-26T01:36:08.909Z,98657.14
2022-07-26T01:38:37.107Z,98656.95
2022-07-26T01:41:05.790Z,98663.48
2022-07-26T01:43:34.067Z,98661.34
2022-07-26T01:46:03.168Z,98659.05
2022-07-26T01:48:32.193Z,98653.17
2022-07-26T01:51:01.254Z,98650.76
2022-07-26T01:53:29.526Z,98648.23
2022-07-26T01:55:57.703Z,98644.48
2022-07-26T01:58:25.877Z,98640.21
2022-07-26T02:00:54.152Z,98636.15
2022-07-26T02:03:22.378Z,98633.98
2022-07-26T02:05:50.608Z,98633.40
2022-07-26T02:08:20.719Z,98629.73
2022-07-26T02:11:00.676Z,98620.39
2022-07-26T02:13:40.929Z,98621.54
2022-07-26T02:16:12.020Z,98625.72
2022-07-26T02:18:40.829Z,98620.00
2022-07-26T02:21:10.059Z,98617.33
2022-07-26T02:23:39.656Z,98610.61
2022-07-26T02:26:10.403Z,98612.85
2022-07-26T02:28:38.574Z,98611.66
2022-07-26T02:31:06.803Z,98609.48
2022-07-26T02:33:34.980Z,98603.70
2022-07-26T02:36:03.150Z,98607.39
2022-07-26T02:38:31.580Z,98605.42
2022-07-26T02:40:59.755Z,98610.78
2022-07-26T02:43:27.931Z,98606.46
2022-07-26T02:46:01.315Z,98600.12
2022-07-26T02:48:31.278Z,98598.77
2022-07-26T02:50:59.899Z,98594.51
2022-07-26T02:53:28.609Z,98592.32
2022-07-26T02:55:56.988Z,98592.98
2022-07-26T02:58:27.127Z,98592.52
2022-07-26T03:00:55.387Z,98586.29
2022-07-26T03:03:23.763Z,98581.77
2022-07-26T03:05:51.938Z,98584.21
2022-07-26T03:08:20.110Z,98589.49
2022-07-26T03:10:48.385Z,98589.09
2022-07-26T03:13:16.575Z,98589.02
2022-07-26T03:15:45.312Z,98587.29
2022-07-26T03:18:13.728Z,98584.30
2022-07-26T03:20:41.901Z,98580.76
2022-07-26T03:23:10.075Z,98575.29
2022-07-26T03:25:39.887Z,98572.15
2022-07-26T03:28:08.062Z,98569.54
2022-07-26T03:30:36.442Z,98569.60
2022-07-26T03:33:11.475Z,98571.17
2022-07-26T03:35:39.649Z,98567.88
2022-07-26T03:38:08.540Z,98564.66
2022-07-26T03:40:36.715Z,98560.86
2022-07-26T03:43:04.889Z,98562.89
2022-07-26T03:45:33.163Z,98564.41
2022-07-26T03:48:01.235Z,98561.70
2022-07-26T03:50:29.528Z,98551.59
2022-07-26T03:52:58.198Z,98549.86
2022-07-26T03:55:44.907Z,98547.96
2022-07-26T03:58:13.134Z,98551.98
2022-07-26T04:00:41.255Z,98550.44
2022-07-26T04:03:09.434Z,98547.82
2022-07-26T04:05:38.116Z,98544.89
2022-07-26T04:08:06.496Z,98537.53
2022-07-26T04:10:34.669Z,98539.73
2022-07-26T04:13:02.943Z,98538.58
2022-07-26T04:15:31.167Z,98533.90
2022-07-26T04:17:59.293Z,98537.23
2022-07-26T04:20:27.466Z,98537.78
2022-07-26T04:22:55.639Z,98538.07
2022-07-26T04:25:23.915Z,98535.52
2022-07-26T04:27:52.091Z,98532.15
2022-07-26T04:30:20.263Z,98534.12
2022-07-26T04:32:48.437Z,98538.73
2022-07-26T04:35:16.629Z,98537.52
2022-07-26T04:37:45.891Z,98541.48
2022-07-26T04:40:21.109Z,98536.45
2022-07-26T04:42:51.852Z,98535.54
2022-07-26T04:45:21.194Z,98531.59
2022-07-26T04:47:50.620Z,98532.98
2022-07-26T04:50:20.407Z,98530.73
2022-07-26T04:52:51.078Z,98529.13
2022-07-26T04:55:19.784Z,98529.62
2022-07-26T04:57:48.609Z,98532.33
2022-07-26T05:00:25.049Z,98535.06
2022-07-26T05:02:58.626Z,98536.17
2022-07-26T05:05:29.209Z,98539.48
2022-07-26T05:08:00.247Z,98537.71
2022-07-26T05:10:35.488Z,98542.94
2022-07-26T05:13:05.834Z,98546.90
2022-07-26T05:15:37.059Z,98541.30
2022-07-26T05:18:08.876Z,98541.53
2022-07-26T05:20:39.093Z,98546.73
2022-07-26T05:23:08.070Z,98553.49
2022-07-26T05:25:36.820Z,98551.66
2022-07-26T05:28:05.645Z,98551.41
2022-07-26T05:30:33.830Z,98551.77
2022-07-26T05:33:02.168Z,98553.67
2022-07-26T05:35:30.438Z,98550.21
2022-07-26T05:37:58.817Z,98551.52
2022-07-26T05:40:27.911Z,98553.89
2022-07-26T05:42:56.293Z,98553.38
2022-07-26T05:45:24.466Z,98554.79
2022-07-26T05:47:53.773Z,98557.16
2022-07-26T05:50:22.246Z,98553.66
2022-07-26T05:52:50.424Z,98553.50
2022-07-26T05:55:18.594Z,98553.89
2022-07-26T05:57:49.556Z,98553.04
2022-07-26T06:00:18.429Z,98553.61
2022-07-26T06:02:46.875Z,98550.48
2022-07-26T06:05:16.204Z,98550.14
2022-07-26T06:07:44.586Z,98549.61
2022-07-26T06:10:12.762Z,98550.11
2022-07-26T06:12:40.931Z,98550.52
2022-07-26T06:15:15.550Z,98548.80
2022-07-26T06:17:44.161Z,98548.33
2022-07-26T06:20:12.622Z,98548.38
2022-07-26T06:22:40.794Z,98542.09
2022-07-26T06:25:09.236Z,98538.02
2022-07-26T06:27:37.349Z,98532.16
2022-07-26T06:30:08.255Z,98530.17
2022-07-26T06:32:36.562Z,98524.67
2022-07-26T06:35:05.588Z,98521.69
2022-07-26T06:37:39.362Z,98520.51
2022-07-26T06:40:09.637Z,98521.77
2022-07-26T06:42:38.169Z,98521.77
2022-07-26T06:45:07.066Z,98520.00
2022-07-26T06:47:35.557Z,98520.90
2022-07-26T06:50:05.915Z,98516.52
2022-07-26T06:52:34.549Z,98518.23
2022-07-26T06:55:04.055Z,98514.56
2022-07-26T06:57:32.542Z,98514.64
2022-07-26T07:00:00.717Z,98515.17
2022-07-26T07:02:28.885Z,98516.88
2022-07-26T07:04:57.201Z,98516.23
2022-07-26T07:07:25.539Z,98514.27
2022-07-26T07:09:56.786Z,98518.60
2022-07-26T07:12:24.959Z,98521.27
2022-07-26T07:14:53.133Z,98524.09
2022-07-26T07:17:21.517Z,98523.02
2022-07-26T07:19:50.197Z,98528.20
2022-07-26T07:22:18.370Z,98535.85
2022-07-26T07:24:46.719Z,98549.39
2022-07-26T07:27:16.873Z,98555.88
2022-07-26T07:29:45.195Z,98554.46
2022-07-26T07:32:18.186Z,98552.06
2022-07-26T07:34:48.695Z,98558.76
2022-07-26T07:37:18.011Z,98561.67
2022-07-26T07:39:50.639Z,98560.61
2022-07-26T07:42:19.949Z,98556.38
2022-07-26T07:44:50.351Z,98558.77
2022-07-26T07:47:18.543Z,98561.38
2022-07-26T07:49:46.717Z,98556.38
2022-07-26T07:52:15.096Z,98556.72
2022-07-26T07:54:43.576Z,98550.71
2022-07-26T07:57:12.074Z,98552.02
2022-07-26T07:59:43.099Z,98558.20
2022-07-26T08:02:13.218Z,98556.05
2022-07-26T08:04:41.538Z,98561.92
2022-07-26T08:07:09.771Z,98562.09
2022-07-26T08:09:38.051Z,98563.32
2022-07-26T08:12:11.854Z,98563.19
2022-07-26T08:14:40.029Z,98565.55
2022-07-26T08:17:09.737Z,98568.66
2022-07-26T08:19:41.623Z,98563.56
2022-07-26T08:22:11.254Z,98561.09
2022-07-26T08:24:39.908Z,98562.92
2022-07-26T08:27:08.064Z,98560.40
2022-07-26T08:29:36.242Z,98559.77
2022-07-26T08:32:05.147Z,98558.91
2022-07-26T08:34:33.918Z,98561.12
2022-07-26T08:37:18.287Z,98559.27
2022-07-26T08:39:48.327Z,98567.50
2022-07-26T08:42:22.614Z,98564.73
2022-07-26T08:44:52.590Z,98562.74
2022-07-26T08:47:35.419Z,98562.76
2022-07-26T08:50:07.389Z,98567.63
2022-07-26T08:52:35.578Z,98575.00
2022-07-26T08:55:03.855Z,98575.67
2022-07-26T08:57:32.028Z,98583.08
2022-07-26T09:00:22.431Z,98585.60
2022-07-26T09:02:52.752Z,98585.20
2022-07-26T09:05:28.091Z,98590.13
2022-07-26T09:07:57.391Z,98593.98
2022-07-26T09:10:26.041Z,98592.40
2022-07-26T09:12:58.682Z,98598.16
2022-07-26T09:15:28.526Z,98594.98
2022-07-26T09:17:58.385Z,98591.63
2022-07-26T09:20:32.393Z,98599.80
2022-07-26T09:23:02.129Z,98595.34
2022-07-26T09:25:39.528Z,98598.12
2022-07-26T09:28:29.988Z,98607.87
2022-07-26T09:31:04.269Z,98602.27
2022-07-26T09:33:47.022Z,98609.60
2022-07-26T09:36:16.472Z,98613.16
2022-07-26T09:38:49.721Z,98612.31
2022-07-26T09:41:19.634Z,98618.03
2022-07-26T09:43:53.447Z,98618.16
2022-07-26T09:46:26.361Z,98615.77
2022-07-26T09:49:12.238Z,98619.64
2022-07-26T09:51:46.381Z,98625.51
2022-07-26T09:54:34.347Z,98626.95
2022-07-26T09:57:02.810Z,98633.30
2022-07-26T09:59:31.433Z,98635.39
2022-07-26T10:02:00.672Z,98638.45
2022-07-26T10:04:29.009Z,98639.91
2022-07-26T10:06:58.515Z,98644.04
2022-07-26T10:09:34.813Z,98647.69
2022-07-26T10:12:07.445Z,98650.75
2022-07-26T10:14:51.502Z,98657.02
2022-07-26T10:17:31.176Z,98664.99
2022-07-26T10:20:02.698Z,98669.05
2022-07-26T10:22:36.707Z,98668.85
2022-07-26T10:25:20.314Z,98667.70
2022-07-26T10:27:53.944Z,98670.69
2022-07-26T10:30:31.578Z,98671.32
2022-07-26T10:33:06.678Z,98666.61
2022-07-26T10:35:34.752Z,98670.59
2022-07-26T10:38:27.443Z,98673.84
2022-07-26T10:40:58.233Z,98680.04
2022-07-26T10:43:40.777Z,98691.12
2022-07-26T10:46:16.223Z,98688.52
2022-07-26T10:49:04.198Z,98692.96
2022-07-26T10:51:35.269Z,98699.73
2022-07-26T10:54:09.342Z,98704.31
2022-07-26T10:56:38.175Z,98708.17
2022-07-26T10:59:07.169Z,98712.73
2022-07-26T11:01:43.470Z,98713.97
2022-07-26T11:04:22.224Z,98713.79
2022-07-26T11:06:50.424Z,98710.99
2022-07-26T11:09:20.747Z,98714.84
2022-07-26T11:11:52.610Z,98713.55
2022-07-26T11:14:20.886Z,98707.16
2022-07-26T11:16:50.856Z,98712.33
2022-07-26T11:19:21.739Z,98720.42
2022-07-26T11:22:00.705Z,98722.60
2022-07-26T11:24:29.577Z,98732.35
2022-07-26T11:27:04.203Z,98734.77
2022-07-26T11:29:38.246Z,98738.90
2022-07-26T11:32:21.813Z,98744.80
2022-07-26T11:35:05.063Z,98742.90
2022-07-26T11:37:33.229Z,98743.75
2022-07-26T11:40:01.349Z,98749.30
2022-07-26T11:42:32.035Z,98753.64
2022-07-26T11:45:00.413Z,98748.02
2022-07-26T11:47:28.689Z,98747.23
2022-07-26T11:50:18.646Z,98753.42
2022-07-26T11:52:50.332Z,98751.88
2022-07-26T11:55:31.720Z,98751.39
2022-07-26T11:58:05.963Z,98754.72
2022-07-26T12:00:34.410Z,98757.14
2022-07-26T12:03:02.585Z,98770.23
2022-07-26T12:05:33.660Z,98765.78
2022-07-26T12:08:05.293Z,98770.11
2022-07-26T12:10:33.766Z,98771.52
2022-07-26T12:13:08.799Z,98771.26
2022-07-26T12:15:52.028Z,98773.94
2022-07-26T12:18:28.842Z,98778.48
2022-07-26T12:21:05.677Z,98783.63
2022-07-26T12:23:49.508Z,98794.15
2022-07-26T12:26:20.663Z,98794.30
2022-07-26T12:28:48.839Z,98801.02
2022-07-26T12:31:34.434Z,98809.30
2022-07-26T12:34:02.901Z,98805.93
2022-07-26T12:36:34.150Z,98812.20
2022-07-26T12:39:02.327Z,98809.65
2022-07-26T12:41:35.309Z,98807.30
2022-07-26T12:44:05.921Z,98813.72
2022-07-26T12:46:36.056Z,98812.66
2022-07-26T12:49:05.482Z,98817.67
2022-07-26T12:51:34.491Z,98821.27
2022-07-26T12:54:05.190Z,98818.92
2022-07-26T12:56:33.885Z,98816.25
2022-07-26T12:59:02.286Z,98812.10
2022-07-26T13:01:31.862Z,98811.65
2022-07-26T13:04:00.672Z,98820.41
2022-07-26T13:06:29.030Z,98818.38
2022-07-26T13:08:57.203Z,98818.09
2022-07-26T13:11:25.583Z,98818.37
2022-07-26T13:13:53.859Z,98821.59
2022-07-26T13:16:22.672Z,98819.14
2022-07-26T13:18:51.133Z,98818.81
2022-07-26T13:21:19.301Z,98815.85
2022-07-26T13:23:47.708Z,98809.51
2022-07-26T13:26:15.956Z,98817.30
2022-07-26T13:28:44.653Z,98825.81
2022-07-26T13:31:18.502Z,98829.32
2022-07-26T13:33:47.031Z,98836.84
2022-07-26T13:36:15.416Z,98839.33
2022-07-26T13:38:43.587Z,98847.43
2022-07-26T13:41:11.761Z,98848.08
2022-07-26T13:43:40.034Z,98850.54
2022-07-26T13:46:08.627Z,98848.70
2022-07-26T13:48:36.975Z,98846.84
2022-07-26T13:51:05.952Z,98853.18
2022-07-26T13:53:34.471Z,98852.73
2022-07-26T13:56:03.337Z,98856.83
2022-07-26T13:58:32.866Z,98868.39
2022-07-26T14:01:02.139Z,98873.12
2022-07-26T14:03:35.209Z,98876.20
2022-07-26T14:06:03.737Z,98876.73
2022-07-26T14:08:31.911Z,98877.63
2022-07-26T14:11:00.084Z,98875.77
2022-07-26T14:13:28.464Z,98875.55
2022-07-26T14:15:56.639Z,98878.80
2022-07-26T14:18:24.813Z,98881.38
2022-07-26T14:20:52.986Z,98873.95
2022-07-26T14:23:21.164Z,98875.81
2022-07-26T14:25:49.335Z,98873.61
2022-07-26T14:28:17.508Z,98873.21
2022-07-26T14:30:45.796Z,98875.59
2022-07-26T14:33:13.958Z,98878.23
2022-07-26T14:35:44.181Z,98882.06
2022-07-26T14:38:13.589Z,98883.49
2022-07-26T14:40:43.804Z,98887.34
2022-07-26T14:43:11.879Z,98888.92
2022-07-26T14:45:41.602Z,98892.51
2022-07-26T14:48:09.862Z,98887.10
2022-07-26T14:50:59.794Z,98890.72
2022-07-26T14:53:26.282Z,98889.46
2022-07-26T14:55:54.568Z,98893.23
2022-07-26T14:58:22.834Z,98892.66
2022-07-26T15:00:52.512Z,98902.77
2022-07-26T15:03:20.719Z,98899.45
2022-07-26T15:05:48.894Z,98904.61
2022-07-26T15:08:17.070Z,98910.34
2022-07-26T15:10:45.345Z,98914.56
2022-07-26T15:13:15.162Z,98918.80
2022-07-26T15:15:43.339Z,98921.57
2022-07-26T15:18:11.503Z,98923.23
2022-07-26T15:20:42.032Z,98923.55
2022-07-26T15:23:11.705Z,98929.56
2022-07-26T15:25:40.028Z,98929.61
2022-07-26T15:28:08.346Z,98930.85
2022-07-26T15:30:37.491Z,98927.01
2022-07-26T15:33:05.725Z,98927.23
2022-07-26T15:35:35.632Z,98927.10
2022-07-26T15:38:04.406Z,98935.34
2022-07-26T15:40:33.029Z,98939.08
2022-07-26T15:43:01.281Z,98938.52
2022-07-26T15:45:30.131Z,98939.42
2022-07-26T15:48:14.617Z,98939.34
2022-07-26T15:50:45.850Z,98936.77
2022-07-26T15:53:15.942Z,98936.84
2022-07-26T15:55:44.116Z,98940.52
2022-07-26T15:58:13.523Z,98941.34
2022-07-26T16:00:42.906Z,98942.52
2022-07-26T16:03:12.121Z,98938.71
2022-07-26T16:05:40.396Z,98938.89
2022-07-26T16:08:08.570Z,98940.42
2022-07-26T16:10:37.051Z,98941.59
2022-07-26T16:13:05.650Z,98940.84
2022-07-26T16:15:33.807Z,98933.88
2022-07-26T16:18:06.268Z,98936.20
2022-07-26T16:20:36.241Z,98939.33
2022-07-26T16:23:04.374Z,98941.19
2022-07-26T16:25:32.545Z,98941.89
2022-07-26T16:28:00.926Z,98945.67
2022-07-26T16:30:29.112Z,98951.55
2022-07-26T16:32:57.273Z,98948.91
2022-07-26T16:35:25.550Z,98950.45
2022-07-26T16:37:53.667Z,98955.21
2022-07-26T16:40:21.902Z,98959.45
2022-07-26T16:42:50.172Z,98957.95
2022-07-26T16:45:18.550Z,98957.62
2022-07-26T16:47:47.051Z,98962.68
2022-07-26T16:50:15.206Z,98963.75
2022-07-26T16:52:55.621Z,98973.03
2022-07-26T16:55:23.842Z,98980.04
2022-07-26T16:57:52.018Z,98983.70
2022-07-26T17:00:22.448Z,98989.47
2022-07-26T17:02:51.233Z,98989.10
2022-07-26T17:05:19.408Z,98991.10
2022-07-26T17:07:47.578Z,98997.84
2022-07-26T17:10:15.753Z,99001.48
2022-07-26T17:12:44.160Z,99001.86
2022-07-26T17:15:13.638Z,99007.23
2022-07-26T17:17:45.693Z,99009.03
2022-07-26T17:20:17.255Z,99010.77
2022-07-26T17:22:45.428Z,99010.30
2022-07-26T17:25:13.604Z,99007.77
2022-07-26T17:27:41.880Z,99003.84
2022-07-26T17:30:10.927Z,99003.27
2022-07-26T17:32:39.268Z,99004.45
2022-07-26T17:35:08.891Z,99004.70
2022-07-26T17:37:37.239Z,99009.53
2022-07-26T17:40:08.108Z,99013.59
2022-07-26T17:42:37.344Z,99013.67
2022-07-26T17:45:07.344Z,99014.76
2022-07-26T17:47:35.461Z,99015.91
2022-07-26T17:50:34.113Z,99012.86
2022-07-26T17:52:54.650Z,99011.49
2022-07-26T17:55:22.828Z,99011.44
2022-07-26T17:57:51.914Z,99009.23
2022-07-26T18:00:22.041Z,99007.58
2022-07-26T18:02:50.311Z,99007.21
2022-07-26T18:05:19.765Z,99000.45
2022-07-26T18:07:48.092Z,99004.69
2022-07-26T18:10:16.374Z,99000.83
2022-07-26T18:12:44.649Z,99004.67
2022-07-26T18:15:13.025Z,99007.73
2022-07-26T18:17:41.730Z,99009.52
2022-07-26T18:20:10.763Z,99009.31
2022-07-26T18:22:39.387Z,99010.90
2022-07-26T18:25:08.347Z,99009.38
2022-07-26T18:27:36.866Z,99011.91
2022-07-26T18:30:07.304Z,99009.92
2022-07-26T18:32:35.573Z,99009.61
2022-07-26T18:35:04.080Z,99012.02
2022-07-26T18:37:32.327Z,99018.66
2022-07-26T18:40:00.500Z,99020.16
2022-07-26T18:42:28.671Z,99017.89
2022-07-26T18:44:56.846Z,99018.00
2022-07-26T18:47:25.022Z,99018.63
2022-07-26T18:49:53.199Z,99020.16
2022-07-26T18:52:28.825Z,99023.85
2022-07-26T18:55:07.567Z,99023.08
2022-07-26T18:57:37.480Z,99025.45
2022-07-26T19:00:18.350Z,99025.36
2022-07-26T19:02:47.627Z,99027.27
2022-07-26T19:05:16.698Z,99027.27
2022-07-26T19:07:46.252Z,99030.50
2022-07-26T19:10:14.733Z,99034.98
2022-07-26T19:12:45.570Z,99035.89
2022-07-26T19:15:17.092Z,99030.15
2022-07-26T19:17:45.371Z,99027.59
2022-07-26T19:20:13.884Z,99027.16
2022-07-26T19:22:44.818Z,99029.00
2022-07-26T19:25:16.379Z,99029.73
2022-07-26T19:27:44.956Z,99035.77
2022-07-26T19:30:13.852Z,99031.90
2022-07-26T19:32:42.021Z,99026.10
2022-07-26T19:35:10.400Z,99026.83
2022-07-26T19:37:38.573Z,99026.10
2022-07-26T19:40:07.658Z,99026.00
2022-07-26T19:42:35.846Z,99020.73
2022-07-26T19:45:04.455Z,99017.31
2022-07-26T19:47:32.703Z,99016.73
2022-07-26T19:50:02.212Z,99014.72
2022-07-26T19:52:30.383Z,99017.90
2022-07-26T19:54:58.966Z,99015.34
2022-07-26T19:57:27.141Z,99019.14
2022-07-26T19:59:56.543Z,99017.83
2022-07-26T20:02:24.934Z,99019.49
2022-07-26T20:04:53.198Z,99021.32
2022-07-26T20:07:21.576Z,99021.59
2022-07-26T20:09:51.081Z,99018.84
2022-07-26T20:12:21.921Z,99017.92
2022-07-26T20:14:50.195Z,99017.09
2022-07-26T20:17:18.413Z,99015.31
2022-07-26T20:19:46.652Z,99018.85
2022-07-26T20:22:14.920Z,99019.44
2022-07-26T20:24:43.094Z,99030.41
2022-07-26T20:27:11.268Z,99028.30
2022-07-26T20:29:39.442Z,99025.38
2022-07-26T20:32:07.925Z,99026.42
2022-07-26T20:34:36.098Z,99022.67
2022-07-26T20:37:04.272Z,99024.17
2022-07-26T20:39:32.549Z,99027.23
2022-07-26T20:42:01.444Z,99026.33
2022-07-26T20:44:29.715Z,99027.70
2022-07-26T20:46:57.992Z,99026.26
2022-07-26T20:49:26.243Z,99031.10
2022-07-26T20:51:54.656Z,99035.14
2022-07-26T20:54:23.023Z,99039.95
2022-07-26T20:56:51.203Z,99042.09
2022-07-26T20:59:19.579Z,99047.52
2022-07-26T21:01:47.866Z,99051.21
2022-07-26T21:04:16.236Z,99047.77
2022-07-26T21:06:44.509Z,99047.54
2022-07-26T21:09:13.243Z,99048.02
2022-07-26T21:11:41.676Z,99048.69
2022-07-26T21:14:09.794Z,99054.58
2022-07-26T21:16:38.329Z,99051.26
2022-07-26T21:19:06.534Z,99056.68
2022-07-26T21:21:36.627Z,99056.25
2022-07-26T21:24:06.582Z,99056.41
2022-07-26T21:26:35.125Z,99056.35
2022-07-26T21:29:04.093Z,99049.45
2022-07-26T21:31:32.295Z,99056.30
2022-07-26T21:34:00.500Z,99059.71
2022-07-26T21:36:28.844Z,99060.08
2022-07-26T21:38:57.018Z,99058.17
2022-07-26T21:41:25.238Z,99063.03
2022-07-26T21:43:53.471Z,99062.66
2022-07-26T21:46:21.744Z,99064.16
2022-07-26T21:48:50.112Z,99067.43
2022-07-26T21:51:18.708Z,99068.97
2022-07-26T21:53:47.290Z,99067.12
2022-07-26T21:56:15.566Z,99068.48
2022-07-26T21:58:43.739Z,99064.00
2022-07-26T22:01:12.953Z,99057.85
2022-07-26T22:03:42.857Z,99058.80
2022-07-26T22:06:11.231Z,99053.84
2022-07-26T22:08:40.331Z,99060.46
2022-07-26T22:11:08.707Z,99061.97
2022-07-26T22:13:37.979Z,99062.65
2022-07-26T22:16:07.195Z,99059.81
2022-07-26T22:18:35.483Z,99058.06
2022-07-26T22:21:04.239Z,99063.52
2022-07-26T22:23:32.750Z,99063.66
2022-07-26T22:26:03.391Z,99068.91
2022-07-26T22:28:33.706Z,99066.98
2022-07-26T22:31:02.030Z,99068.18
2022-07-26T22:33:30.368Z,99062.96
2022-07-26T22:35:58.535Z,99065.90
2022-07-26T22:38:26.811Z,99066.23
2022-07-26T22:40:54.986Z,99062.77
2022-07-26T22:43:23.160Z,99062.44
2022-07-26T22:45:51.689Z,99059.17
2022-07-26T22:48:20.224Z,99061.42
2022-07-26T22:50:48.398Z,99060.99
2022-07-26T22:53:16.778Z,99064.48
2022-07-26T22:55:44.953Z,99062.80
2022-07-26T22:58:13.534Z,99067.23
2022-07-26T23:00:41.786Z,99069.86
2022-07-26T23:03:19.762Z,99068.20
2022-07-26T23:05:50.330Z,99067.38
2022-07-26T23:08:44.351Z,99064.29
2022-07-26T23:11:07.173Z,99066.77
2022-07-26T23:13:35.346Z,99066.14
2022-07-26T23:16:03.854Z,99062.27
2022-07-26T23:18:33.811Z,99071.60
2022-07-26T23:21:02.330Z,99068.46
2022-07-26T23:23:32.656Z,99067.08
2022-07-26T23:26:01.446Z,99063.77
2022-07-26T23:28:36.669Z,99063.55
2022-07-26T23:31:08.718Z,99063.18
2022-07-26T23:33:53.326Z,99062.81
2022-07-26T23:36:27.929Z,99060.94
2022-07-26T23:38:59.174Z,99064.82
2022-07-26T23:41:28.404Z,99069.17
2022-07-26T23:43:56.856Z,99068.14
2022-07-26T23:46:25.914Z,99070.79
2022-07-26T23:48:54.707Z,99071.98
2022-07-26T23:51:25.679Z,99074.20
2022-07-26T23:53:54.053Z,99071.33
2022-07-26T23:56:22.534Z,99070.73
2022-07-26T23:58:50.913Z,99076.93
